sensor_id;sensor_type;location;lat;lon;timestamp;temperature;humidity
43862;DHT22;29510;52.140;5.034;2023-02-02T00:07:00;8.00;99.90
43862;DHT22;29510;52.140;5.034;2023-02-02T00:17:02;7.90;99.90
43862;DHT22;29510;52.140;5.034;2023-02-02T00:27:04;7.90;99.90
43862;DHT22;29510;52.140;5.034;2023-02-02T00:37:05;8.00;99.90
43862;DHT22;29510;52.140;5.034;2023-02-02T00:47:06;7.90;99.90
43862;DHT22;29510;52.140;5.034;2023-02-02T00:57:12;7.70;99.90
43862;DHT22;29510;52.140;5.034;2023-02-02T01:07:14;7.40;99.90
43862;DHT22;29510;52.140;5.034;2023-02-02T01:17:15;7.30;99.90
43862;DHT22;29510;52.140;5.034;2023-02-02T01:27:17;7.10;99.90
43862;DHT22;29510;52.140;5.034;2023-02-02T01:37:18;7.00;99.90
43862;DHT22;29510;52.140;5.034;2023-02-02T01:47:22;7.20;99.90
43862;DHT22;29510;52.140;5.034;2023-02-02T01:57:29;7.10;99.90
43862;DHT22;29510;52.140;5.034;2023-02-02T02:07:30;7.20;99.90
43862;DHT22;29510;52.140;5.034;2023-02-02T02:17:45;7.40;99.90
43862;DHT22;29510;52.140;5.034;2023-02-02T02:28:08;7.50;99.90
43862;DHT22;29510;52.140;5.034;2023-02-02T02:38:50;7.70;99.90
43862;DHT22;29510;52.140;5.034;2023-02-02T02:48:52;7.70;99.90
43862;DHT22;29510;52.140;5.034;2023-02-02T02:59:06;7.70;99.90
43862;DHT22;29510;52.140;5.034;2023-02-02T03:09:14;7.70;99.90
43862;DHT22;29510;52.140;5.034;2023-02-02T03:19:17;7.80;99.90
43862;DHT22;29510;52.140;5.034;2023-02-02T03:29:18;7.90;99.90
43862;DHT22;29510;52.140;5.034;2023-02-02T03:39:19;8.00;99.90
43862;DHT22;29510;52.140;5.034;2023-02-02T03:49:20;8.00;99.90
43862;DHT22;29510;52.140;5.034;2023-02-02T03:59:22;8.10;99.90
43862;DHT22;29510;52.140;5.034;2023-02-02T04:09:24;8.10;99.90
43862;DHT22;29510;52.140;5.034;2023-02-02T04:19:25;8.20;99.90
43862;DHT22;29510;52.140;5.034;2023-02-02T04:29:26;8.10;99.90
43862;DHT22;29510;52.140;5.034;2023-02-02T04:39:27;8.20;99.90
43862;DHT22;29510;52.140;5.034;2023-02-02T04:49:28;8.20;99.90
43862;DHT22;29510;52.140;5.034;2023-02-02T04:59:29;8.20;99.90
43862;DHT22;29510;52.140;5.034;2023-02-02T05:09:30;8.20;99.90
43862;DHT22;29510;52.140;5.034;2023-02-02T05:19:31;8.30;99.90
43862;DHT22;29510;52.140;5.034;2023-02-02T05:29:32;8.30;99.90
43862;DHT22;29510;52.140;5.034;2023-02-02T05:39:33;8.20;99.90
43862;DHT22;29510;52.140;5.034;2023-02-02T05:49:34;8.30;99.90
43862;DHT22;29510;52.140;5.034;2023-02-02T05:59:35;8.20;99.90
43862;DHT22;29510;52.140;5.034;2023-02-02T06:09:36;8.40;99.90
43862;DHT22;29510;52.140;5.034;2023-02-02T06:19:37;8.30;99.90
43862;DHT22;29510;52.140;5.034;2023-02-02T06:29:38;8.20;99.90
43862;DHT22;29510;52.140;5.034;2023-02-02T06:39:39;8.20;99.90
43862;DHT22;29510;52.140;5.034;2023-02-02T06:49:40;8.10;99.90
43862;DHT22;29510;52.140;5.034;2023-02-02T06:59:41;8.20;99.90
43862;DHT22;29510;52.140;5.034;2023-02-02T07:09:42;8.10;99.90
43862;DHT22;29510;52.140;5.034;2023-02-02T07:19:43;8.00;99.90
43862;DHT22;29510;52.140;5.034;2023-02-02T07:29:44;7.90;99.90
43862;DHT22;29510;52.140;5.034;2023-02-02T07:39:45;7.90;99.90
43862;DHT22;29510;52.140;5.034;2023-02-02T07:49:46;7.90;99.90
43862;DHT22;29510;52.140;5.034;2023-02-02T07:59:47;8.10;99.90
43862;DHT22;29510;52.140;5.034;2023-02-02T08:09:50;8.00;99.90
43862;DHT22;29510;52.140;5.034;2023-02-02T08:19:51;8.20;99.90
43862;DHT22;29510;52.140;5.034;2023-02-02T08:29:52;8.10;99.90
43862;DHT22;29510;52.140;5.034;2023-02-02T08:39:53;8.10;99.90
43862;DHT22;29510;52.140;5.034;2023-02-02T08:49:54;8.20;99.90
43862;DHT22;29510;52.140;5.034;2023-02-02T08:59:55;8.30;99.90
43862;DHT22;29510;52.140;5.034;2023-02-02T09:09:56;8.40;99.90
43862;DHT22;29510;52.140;5.034;2023-02-02T09:19:57;8.60;99.90
43862;DHT22;29510;52.140;5.034;2023-02-02T09:29:58;8.50;99.90
43862;DHT22;29510;52.140;5.034;2023-02-02T09:40:00;8.60;99.90
43862;DHT22;29510;52.140;5.034;2023-02-02T10:10:50;8.70;99.90
43862;DHT22;29510;52.140;5.034;2023-02-02T10:21:25;8.70;99.90
43862;DHT22;29510;52.140;5.034;2023-02-02T10:52:14;8.90;99.90
43862;DHT22;29510;52.140;5.034;2023-02-02T11:02:15;8.90;99.90
43862;DHT22;29510;52.140;5.034;2023-02-02T11:12:29;9.10;99.90
43862;DHT22;29510;52.140;5.034;2023-02-02T11:22:33;9.10;99.90
43862;DHT22;29510;52.140;5.034;2023-02-02T11:32:35;9.10;99.90
43862;DHT22;29510;52.140;5.034;2023-02-02T11:42:44;9.10;99.90
43862;DHT22;29510;52.140;5.034;2023-02-02T11:52:45;9.10;99.90
43862;DHT22;29510;52.140;5.034;2023-02-02T12:02:48;9.00;99.90
43862;DHT22;29510;52.140;5.034;2023-02-02T12:13:09;9.00;99.90
43862;DHT22;29510;52.140;5.034;2023-02-02T12:54:51;9.20;99.90
43862;DHT22;29510;52.140;5.034;2023-02-02T13:05:22;8.90;99.90
43862;DHT22;29510;52.140;5.034;2023-02-02T13:15:33;8.90;99.90
43862;DHT22;29510;52.140;5.034;2023-02-02T13:25:46;8.80;99.90
43862;DHT22;29510;52.140;5.034;2023-02-02T13:35:54;8.60;99.90
43862;DHT22;29510;52.140;5.034;2023-02-02T13:46:28;8.40;99.90
43862;DHT22;29510;52.140;5.034;2023-02-02T14:06:59;8.40;99.90
43862;DHT22;29510;52.140;5.034;2023-02-02T14:57:53;8.10;99.90
43862;DHT22;29510;52.140;5.034;2023-02-02T15:18:23;8.20;99.90
43862;DHT22;29510;52.140;5.034;2023-02-02T15:28:46;8.20;99.90
43862;DHT22;29510;52.140;5.034;2023-02-02T15:38:54;8.20;99.90
43862;DHT22;29510;52.140;5.034;2023-02-02T15:59:24;8.20;99.90
43862;DHT22;29510;52.140;5.034;2023-02-02T16:09:28;8.20;99.90
43862;DHT22;29510;52.140;5.034;2023-02-02T16:19:31;8.20;99.90
43862;DHT22;29510;52.140;5.034;2023-02-02T16:29:33;8.30;99.90
43862;DHT22;29510;52.140;5.034;2023-02-02T16:39:34;8.30;99.90
43862;DHT22;29510;52.140;5.034;2023-02-02T16:49:35;8.40;99.90
43862;DHT22;29510;52.140;5.034;2023-02-02T16:59:37;8.40;99.90
43862;DHT22;29510;52.140;5.034;2023-02-02T17:09:39;8.40;99.90
43862;DHT22;29510;52.140;5.034;2023-02-02T17:19:41;8.40;99.90
43862;DHT22;29510;52.140;5.034;2023-02-02T17:29:44;8.40;99.90
43862;DHT22;29510;52.140;5.034;2023-02-02T17:39:45;8.40;99.90
43862;DHT22;29510;52.140;5.034;2023-02-02T17:49:46;8.40;99.90
43862;DHT22;29510;52.140;5.034;2023-02-02T17:59:47;8.40;99.90
43862;DHT22;29510;52.140;5.034;2023-02-02T18:09:48;8.50;99.90
43862;DHT22;29510;52.140;5.034;2023-02-02T18:19:49;8.70;99.90
43862;DHT22;29510;52.140;5.034;2023-02-02T18:29:50;8.70;99.90
43862;DHT22;29510;52.140;5.034;2023-02-02T18:39:51;8.80;99.90
43862;DHT22;29510;52.140;5.034;2023-02-02T18:49:53;8.80;99.90
43862;DHT22;29510;52.140;5.034;2023-02-02T18:59:55;8.80;99.90
43862;DHT22;29510;52.140;5.034;2023-02-02T19:09:56;8.80;99.90
43862;DHT22;29510;52.140;5.034;2023-02-02T19:19:59;8.90;99.90
43862;DHT22;29510;52.140;5.034;2023-02-02T19:30:11;8.70;99.90
43862;DHT22;29510;52.140;5.034;2023-02-02T19:40:21;8.60;99.90
43862;DHT22;29510;52.140;5.034;2023-02-02T19:50:24;8.50;99.90
43862;DHT22;29510;52.140;5.034;2023-02-02T20:00:28;8.70;99.90
43862;DHT22;29510;52.140;5.034;2023-02-02T20:10:40;8.80;99.90
43862;DHT22;29510;52.140;5.034;2023-02-02T20:20:49;8.90;99.90
43862;DHT22;29510;52.140;5.034;2023-02-02T20:30:51;9.10;99.90
43862;DHT22;29510;52.140;5.034;2023-02-02T20:40:52;9.10;99.90
43862;DHT22;29510;52.140;5.034;2023-02-02T20:50:53;9.10;99.90
43862;DHT22;29510;52.140;5.034;2023-02-02T21:00:54;9.00;99.90
43862;DHT22;29510;52.140;5.034;2023-02-02T21:10:55;9.10;99.90
43862;DHT22;29510;52.140;5.034;2023-02-02T21:20:56;9.30;99.90
43862;DHT22;29510;52.140;5.034;2023-02-02T21:30:57;9.20;99.90
43862;DHT22;29510;52.140;5.034;2023-02-02T21:40:58;9.30;99.90
43862;DHT22;29510;52.140;5.034;2023-02-02T21:51:21;9.30;99.90
43862;DHT22;29510;52.140;5.034;2023-02-02T22:01:33;9.20;99.90
43862;DHT22;29510;52.140;5.034;2023-02-02T22:11:54;9.30;99.90
43862;DHT22;29510;52.140;5.034;2023-02-02T22:32:08;9.40;99.90
43862;DHT22;29510;52.140;5.034;2023-02-02T22:42:09;9.40;99.90
43862;DHT22;29510;52.140;5.034;2023-02-02T22:52:10;9.40;99.90
43862;DHT22;29510;52.140;5.034;2023-02-02T23:02:11;9.40;99.90
43862;DHT22;29510;52.140;5.034;2023-02-02T23:12:12;9.30;99.90
43862;DHT22;29510;52.140;5.034;2023-02-02T23:22:13;9.30;99.90
43862;DHT22;29510;52.140;5.034;2023-02-02T23:32:14;9.30;99.90
43862;DHT22;29510;52.140;5.034;2023-02-02T23:42:15;9.30;99.90
43862;DHT22;29510;52.140;5.034;2023-02-02T23:52:17;9.40;99.90
